sensor_id;sensor_type;location;lat;lon;timestamp;temperature;humidity
44215;DHT22;29884;47.450;19.124;2022-12-18T00:00:45;-1.50;99.90
44215;DHT22;29884;47.450;19.124;2022-12-18T00:03:13;-1.50;99.90
44215;DHT22;29884;47.450;19.124;2022-12-18T00:05:46;-1.50;99.90
44215;DHT22;29884;47.450;19.124;2022-12-18T00:08:13;-1.40;99.90
44215;DHT22;29884;47.450;19.124;2022-12-18T00:10:38;-1.50;99.90
44215;DHT22;29884;47.450;19.124;2022-12-18T00:13:04;-1.50;99.90
44215;DHT22;29884;47.450;19.124;2022-12-18T00:15:29;-1.50;99.90
44215;DHT22;29884;47.450;19.124;2022-12-18T00:17:55;-1.50;99.90
44215;DHT22;29884;47.450;19.124;2022-12-18T00:20:21;-1.60;99.90
44215;DHT22;29884;47.450;19.124;2022-12-18T00:22:51;-1.60;99.90
44215;DHT22;29884;47.450;19.124;2022-12-18T00:25:17;-1.60;99.90
44215;DHT22;29884;47.450;19.124;2022-12-18T00:27:43;-1.60;99.90
44215;DHT22;29884;47.450;19.124;2022-12-18T00:30:09;-1.60;99.90
44215;DHT22;29884;47.450;19.124;2022-12-18T00:32:35;-1.60;99.90
44215;DHT22;29884;47.450;19.124;2022-12-18T00:35:01;-1.60;99.90
44215;DHT22;29884;47.450;19.124;2022-12-18T00:37:27;-1.60;99.90
44215;DHT22;29884;47.450;19.124;2022-12-18T00:39:52;-1.70;99.90
44215;DHT22;29884;47.450;19.124;2022-12-18T00:42:18;-1.70;99.90
44215;DHT22;29884;47.450;19.124;2022-12-18T00:45:02;-1.80;99.90
44215;DHT22;29884;47.450;19.124;2022-12-18T00:47:28;-1.70;99.90
44215;DHT22;29884;47.450;19.124;2022-12-18T00:49:54;-1.60;99.90
44215;DHT22;29884;47.450;19.124;2022-12-18T00:52:20;-1.60;99.90
44215;DHT22;29884;47.450;19.124;2022-12-18T00:54:45;-1.60;99.90
44215;DHT22;29884;47.450;19.124;2022-12-18T00:57:11;-1.60;99.90
44215;DHT22;29884;47.450;19.124;2022-12-18T00:59:37;-1.70;99.90
44215;DHT22;29884;47.450;19.124;2022-12-18T01:02:02;-1.70;99.90
44215;DHT22;29884;47.450;19.124;2022-12-18T01:04:31;-1.70;99.90
44215;DHT22;29884;47.450;19.124;2022-12-18T01:06:57;-1.80;99.90
44215;DHT22;29884;47.450;19.124;2022-12-18T01:09:22;-1.80;99.90
44215;DHT22;29884;47.450;19.124;2022-12-18T01:11:48;-1.80;99.90
44215;DHT22;29884;47.450;19.124;2022-12-18T01:14:13;-1.80;99.90
44215;DHT22;29884;47.450;19.124;2022-12-18T01:16:39;-1.80;99.90
44215;DHT22;29884;47.450;19.124;2022-12-18T01:19:05;-1.80;99.90
44215;DHT22;29884;47.450;19.124;2022-12-18T01:21:31;-1.80;99.90
44215;DHT22;29884;47.450;19.124;2022-12-18T01:23:56;-1.80;99.90
44215;DHT22;29884;47.450;19.124;2022-12-18T01:26:23;-1.80;99.90
44215;DHT22;29884;47.450;19.124;2022-12-18T01:28:49;-1.80;99.90
44215;DHT22;29884;47.450;19.124;2022-12-18T01:31:24;-1.80;99.90
44215;DHT22;29884;47.450;19.124;2022-12-18T01:33:51;-1.70;99.90
44215;DHT22;29884;47.450;19.124;2022-12-18T01:36:24;-1.70;99.90
44215;DHT22;29884;47.450;19.124;2022-12-18T01:38:51;-1.70;99.90
44215;DHT22;29884;47.450;19.124;2022-12-18T01:41:19;-1.70;99.90
44215;DHT22;29884;47.450;19.124;2022-12-18T01:43:48;-1.70;99.90
44215;DHT22;29884;47.450;19.124;2022-12-18T01:46:15;-1.70;99.90
44215;DHT22;29884;47.450;19.124;2022-12-18T01:48:42;-1.60;99.90
44215;DHT22;29884;47.450;19.124;2022-12-18T01:51:11;-1.60;99.90
44215;DHT22;29884;47.450;19.124;2022-12-18T01:53:37;-1.60;99.90
44215;DHT22;29884;47.450;19.124;2022-12-18T01:56:04;-1.60;99.90
44215;DHT22;29884;47.450;19.124;2022-12-18T02:01:04;-1.60;99.90
44215;DHT22;29884;47.450;19.124;2022-12-18T02:03:30;-1.50;99.90
44215;DHT22;29884;47.450;19.124;2022-12-18T02:09:14;-1.50;99.90
44215;DHT22;29884;47.450;19.124;2022-12-18T02:11:46;-1.40;99.90
44215;DHT22;29884;47.450;19.124;2022-12-18T02:14:22;-1.40;99.90
44215;DHT22;29884;47.450;19.124;2022-12-18T02:17:10;-1.40;99.90
44215;DHT22;29884;47.450;19.124;2022-12-18T02:22:58;-1.50;99.90
44215;DHT22;29884;47.450;19.124;2022-12-18T02:25:39;-1.50;99.90
44215;DHT22;29884;47.450;19.124;2022-12-18T02:28:09;-1.50;99.90
44215;DHT22;29884;47.450;19.124;2022-12-18T02:30:38;-1.50;99.90
44215;DHT22;29884;47.450;19.124;2022-12-18T02:33:06;-1.60;99.90
44215;DHT22;29884;47.450;19.124;2022-12-18T02:35:34;-1.50;99.90
44215;DHT22;29884;47.450;19.124;2022-12-18T02:38:03;-1.60;99.90
44215;DHT22;29884;47.450;19.124;2022-12-18T02:40:29;-1.60;99.90
44215;DHT22;29884;47.450;19.124;2022-12-18T02:42:55;-1.60;99.90
44215;DHT22;29884;47.450;19.124;2022-12-18T02:45:27;-1.70;99.90
44215;DHT22;29884;47.450;19.124;2022-12-18T02:47:52;-1.80;99.90
44215;DHT22;29884;47.450;19.124;2022-12-18T02:50:50;-1.80;99.90
44215;DHT22;29884;47.450;19.124;2022-12-18T02:53:38;-1.80;99.90
44215;DHT22;29884;47.450;19.124;2022-12-18T02:56:25;-1.80;99.90
44215;DHT22;29884;47.450;19.124;2022-12-18T02:59:04;-1.90;99.90
44215;DHT22;29884;47.450;19.124;2022-12-18T03:02:10;-1.90;99.90
44215;DHT22;29884;47.450;19.124;2022-12-18T03:05:01;-1.90;99.90
44215;DHT22;29884;47.450;19.124;2022-12-18T03:07:36;-1.90;99.90
44215;DHT22;29884;47.450;19.124;2022-12-18T03:10:04;-2.00;99.90
44215;DHT22;29884;47.450;19.124;2022-12-18T03:12:35;-2.00;99.90
44215;DHT22;29884;47.450;19.124;2022-12-18T03:17:32;-2.00;99.90
44215;DHT22;29884;47.450;19.124;2022-12-18T03:20:04;-1.90;99.90
44215;DHT22;29884;47.450;19.124;2022-12-18T03:22:33;-2.00;99.90
44215;DHT22;29884;47.450;19.124;2022-12-18T03:25:01;-2.00;99.90
44215;DHT22;29884;47.450;19.124;2022-12-18T03:27:29;-2.00;99.90
44215;DHT22;29884;47.450;19.124;2022-12-18T03:30:08;-2.00;99.90
44215;DHT22;29884;47.450;19.124;2022-12-18T03:32:47;-2.00;99.90
44215;DHT22;29884;47.450;19.124;2022-12-18T03:35:16;-2.00;99.90
44215;DHT22;29884;47.450;19.124;2022-12-18T03:37:44;-1.90;99.90
44215;DHT22;29884;47.450;19.124;2022-12-18T03:40:10;-1.90;99.90
44215;DHT22;29884;47.450;19.124;2022-12-18T03:42:51;-1.90;99.90
44215;DHT22;29884;47.450;19.124;2022-12-18T03:45:29;-2.00;99.90
44215;DHT22;29884;47.450;19.124;2022-12-18T03:48:06;-2.00;99.90
44215;DHT22;29884;47.450;19.124;2022-12-18T03:50:37;-2.00;99.90
44215;DHT22;29884;47.450;19.124;2022-12-18T03:55:49;-2.10;99.90
44215;DHT22;29884;47.450;19.124;2022-12-18T03:58:18;-2.10;99.90
44215;DHT22;29884;47.450;19.124;2022-12-18T04:00:45;-2.10;99.90
44215;DHT22;29884;47.450;19.124;2022-12-18T04:03:14;-2.20;99.90
44215;DHT22;29884;47.450;19.124;2022-12-18T04:05:41;-2.10;99.90
44215;DHT22;29884;47.450;19.124;2022-12-18T04:08:08;-2.30;99.90
44215;DHT22;29884;47.450;19.124;2022-12-18T04:10:34;-2.30;99.90
44215;DHT22;29884;47.450;19.124;2022-12-18T04:13:00;-2.40;99.90
44215;DHT22;29884;47.450;19.124;2022-12-18T04:15:26;-2.40;99.90
44215;DHT22;29884;47.450;19.124;2022-12-18T04:17:52;-2.40;99.90
44215;DHT22;29884;47.450;19.124;2022-12-18T04:20:18;-2.40;99.90
44215;DHT22;29884;47.450;19.124;2022-12-18T04:22:43;-2.40;99.90
44215;DHT22;29884;47.450;19.124;2022-12-18T04:25:09;-2.50;99.90
44215;DHT22;29884;47.450;19.124;2022-12-18T04:27:37;-2.50;99.90
44215;DHT22;29884;47.450;19.124;2022-12-18T04:30:03;-2.50;99.90
44215;DHT22;29884;47.450;19.124;2022-12-18T04:32:29;-2.50;99.90
44215;DHT22;29884;47.450;19.124;2022-12-18T04:34:55;-2.50;99.90
44215;DHT22;29884;47.450;19.124;2022-12-18T04:37:20;-2.60;99.90
44215;DHT22;29884;47.450;19.124;2022-12-18T04:39:46;-2.60;99.90
44215;DHT22;29884;47.450;19.124;2022-12-18T04:42:12;-2.60;99.90
44215;DHT22;29884;47.450;19.124;2022-12-18T04:44:38;-2.70;99.90
44215;DHT22;29884;47.450;19.124;2022-12-18T04:47:03;-2.80;99.90
44215;DHT22;29884;47.450;19.124;2022-12-18T04:49:29;-2.80;99.90
44215;DHT22;29884;47.450;19.124;2022-12-18T04:51:55;-2.80;99.90
44215;DHT22;29884;47.450;19.124;2022-12-18T04:54:20;-2.80;99.90
44215;DHT22;29884;47.450;19.124;2022-12-18T04:56:46;-2.80;99.90
44215;DHT22;29884;47.450;19.124;2022-12-18T04:59:12;-2.90;99.90
44215;DHT22;29884;47.450;19.124;2022-12-18T05:01:37;-2.90;99.90
44215;DHT22;29884;47.450;19.124;2022-12-18T05:04:03;-2.90;99.90
44215;DHT22;29884;47.450;19.124;2022-12-18T05:06:29;-2.90;99.90
44215;DHT22;29884;47.450;19.124;2022-12-18T05:08:55;-2.90;99.90
44215;DHT22;29884;47.450;19.124;2022-12-18T05:11:21;-3.00;99.90
44215;DHT22;29884;47.450;19.124;2022-12-18T05:13:46;-3.00;99.90
44215;DHT22;29884;47.450;19.124;2022-12-18T05:16:13;-3.00;99.90
44215;DHT22;29884;47.450;19.124;2022-12-18T05:18:39;-3.00;99.90
44215;DHT22;29884;47.450;19.124;2022-12-18T05:21:05;-3.10;99.90
44215;DHT22;29884;47.450;19.124;2022-12-18T05:23:34;-3.00;99.90
44215;DHT22;29884;47.450;19.124;2022-12-18T05:26:01;-3.10;99.90
44215;DHT22;29884;47.450;19.124;2022-12-18T05:28:29;-3.10;99.90
44215;DHT22;29884;47.450;19.124;2022-12-18T05:30:57;-3.10;99.90
44215;DHT22;29884;47.450;19.124;2022-12-18T05:33:25;-3.00;99.90
44215;DHT22;29884;47.450;19.124;2022-12-18T05:35:56;-3.10;99.90
44215;DHT22;29884;47.450;19.124;2022-12-18T05:38:23;-3.10;99.90
44215;DHT22;29884;47.450;19.124;2022-12-18T05:40:50;-3.20;99.90
44215;DHT22;29884;47.450;19.124;2022-12-18T05:43:17;-3.20;99.90
44215;DHT22;29884;47.450;19.124;2022-12-18T05:45:43;-3.10;99.90
44215;DHT22;29884;47.450;19.124;2022-12-18T05:48:11;-3.20;99.90
44215;DHT22;29884;47.450;19.124;2022-12-18T05:50:39;-3.20;99.90
44215;DHT22;29884;47.450;19.124;2022-12-18T05:53:05;-3.30;99.90
44215;DHT22;29884;47.450;19.124;2022-12-18T05:55:35;-3.30;99.90
44215;DHT22;29884;47.450;19.124;2022-12-18T05:58:01;-3.30;99.90
44215;DHT22;29884;47.450;19.124;2022-12-18T06:00:27;-3.30;99.90
44215;DHT22;29884;47.450;19.124;2022-12-18T06:02:53;-3.30;99.90
44215;DHT22;29884;47.450;19.124;2022-12-18T06:05:18;-3.20;99.90
44215;DHT22;29884;47.450;19.124;2022-12-18T06:07:44;-3.30;99.90
44215;DHT22;29884;47.450;19.124;2022-12-18T06:10:10;-3.30;99.90
44215;DHT22;29884;47.450;19.124;2022-12-18T06:12:36;-3.40;99.90
44215;DHT22;29884;47.450;19.124;2022-12-18T06:15:02;-3.40;99.90
44215;DHT22;29884;47.450;19.124;2022-12-18T06:17:29;-3.40;99.90
44215;DHT22;29884;47.450;19.124;2022-12-18T06:19:55;-3.40;99.90
44215;DHT22;29884;47.450;19.124;2022-12-18T06:22:20;-3.40;99.90
44215;DHT22;29884;47.450;19.124;2022-12-18T06:24:46;-3.40;99.90
44215;DHT22;29884;47.450;19.124;2022-12-18T06:27:12;-3.40;99.90
44215;DHT22;29884;47.450;19.124;2022-12-18T06:29:38;-3.50;99.90
44215;DHT22;29884;47.450;19.124;2022-12-18T06:32:03;-3.50;99.90
44215;DHT22;29884;47.450;19.124;2022-12-18T06:34:29;-3.50;99.90
44215;DHT22;29884;47.450;19.124;2022-12-18T06:36:58;-3.50;99.90
44215;DHT22;29884;47.450;19.124;2022-12-18T06:39:24;-3.50;99.90
44215;DHT22;29884;47.450;19.124;2022-12-18T06:41:50;-3.50;99.90
44215;DHT22;29884;47.450;19.124;2022-12-18T06:44:15;-3.50;99.90
44215;DHT22;29884;47.450;19.124;2022-12-18T06:46:41;-3.50;99.90
44215;DHT22;29884;47.450;19.124;2022-12-18T06:49:07;-3.60;99.90
44215;DHT22;29884;47.450;19.124;2022-12-18T06:51:34;-3.50;99.90
44215;DHT22;29884;47.450;19.124;2022-12-18T06:54:00;-3.50;99.90
44215;DHT22;29884;47.450;19.124;2022-12-18T06:56:25;-3.40;99.90
44215;DHT22;29884;47.450;19.124;2022-12-18T06:58:51;-3.50;99.90
44215;DHT22;29884;47.450;19.124;2022-12-18T07:01:17;-3.50;99.90
44215;DHT22;29884;47.450;19.124;2022-12-18T07:03:42;-3.40;99.90
44215;DHT22;29884;47.450;19.124;2022-12-18T07:06:17;-3.40;99.90
44215;DHT22;29884;47.450;19.124;2022-12-18T07:08:44;-3.40;99.90
44215;DHT22;29884;47.450;19.124;2022-12-18T07:11:09;-3.40;99.90
44215;DHT22;29884;47.450;19.124;2022-12-18T07:13:35;-3.30;99.90
44215;DHT22;29884;47.450;19.124;2022-12-18T07:16:06;-3.20;99.90
44215;DHT22;29884;47.450;19.124;2022-12-18T07:18:32;-3.20;99.90
44215;DHT22;29884;47.450;19.124;2022-12-18T07:20:58;-3.20;99.90
44215;DHT22;29884;47.450;19.124;2022-12-18T07:23:23;-3.10;99.90
44215;DHT22;29884;47.450;19.124;2022-12-18T07:25:49;-3.10;99.90
44215;DHT22;29884;47.450;19.124;2022-12-18T07:28:14;-3.10;99.90
44215;DHT22;29884;47.450;19.124;2022-12-18T07:30:40;-3.00;99.90
44215;DHT22;29884;47.450;19.124;2022-12-18T07:33:06;-2.90;99.90
44215;DHT22;29884;47.450;19.124;2022-12-18T07:35:33;-2.90;99.90
44215;DHT22;29884;47.450;19.124;2022-12-18T07:38:03;-2.80;99.90
44215;DHT22;29884;47.450;19.124;2022-12-18T07:40:28;-2.80;99.90
44215;DHT22;29884;47.450;19.124;2022-12-18T07:42:54;-2.70;99.90
44215;DHT22;29884;47.450;19.124;2022-12-18T07:45:19;-2.60;99.90
44215;DHT22;29884;47.450;19.124;2022-12-18T07:47:45;-2.60;99.90
44215;DHT22;29884;47.450;19.124;2022-12-18T07:50:11;-2.60;99.90
44215;DHT22;29884;47.450;19.124;2022-12-18T07:52:36;-2.50;99.90
44215;DHT22;29884;47.450;19.124;2022-12-18T07:55:03;-2.40;99.90
44215;DHT22;29884;47.450;19.124;2022-12-18T07:57:28;-2.40;99.90
44215;DHT22;29884;47.450;19.124;2022-12-18T07:59:54;-2.30;99.90
44215;DHT22;29884;47.450;19.124;2022-12-18T08:02:20;-2.20;99.90
44215;DHT22;29884;47.450;19.124;2022-12-18T08:04:45;-2.20;99.90
44215;DHT22;29884;47.450;19.124;2022-12-18T08:07:11;-2.10;99.90
44215;DHT22;29884;47.450;19.124;2022-12-18T08:09:38;-2.00;99.90
44215;DHT22;29884;47.450;19.124;2022-12-18T08:12:04;-2.00;99.90
44215;DHT22;29884;47.450;19.124;2022-12-18T08:14:29;-2.00;99.90
44215;DHT22;29884;47.450;19.124;2022-12-18T08:16:55;-1.90;99.90
44215;DHT22;29884;47.450;19.124;2022-12-18T08:19:21;-1.70;99.90
44215;DHT22;29884;47.450;19.124;2022-12-18T08:21:46;-1.70;99.90
44215;DHT22;29884;47.450;19.124;2022-12-18T08:24:12;-1.70;99.90
44215;DHT22;29884;47.450;19.124;2022-12-18T08:26:38;-1.70;99.90
44215;DHT22;29884;47.450;19.124;2022-12-18T08:29:04;-1.60;99.90
44215;DHT22;29884;47.450;19.124;2022-12-18T08:31:30;-1.50;99.90
44215;DHT22;29884;47.450;19.124;2022-12-18T08:33:57;-1.40;99.90
44215;DHT22;29884;47.450;19.124;2022-12-18T08:36:23;-1.30;99.90
44215;DHT22;29884;47.450;19.124;2022-12-18T08:38:50;-1.20;99.90
44215;DHT22;29884;47.450;19.124;2022-12-18T08:41:17;-1.20;99.90
44215;DHT22;29884;47.450;19.124;2022-12-18T08:43:43;-1.20;99.90
44215;DHT22;29884;47.450;19.124;2022-12-18T08:46:33;-1.20;99.90
44215;DHT22;29884;47.450;19.124;2022-12-18T08:48:59;-1.10;99.90
44215;DHT22;29884;47.450;19.124;2022-12-18T08:51:25;-0.90;99.90
44215;DHT22;29884;47.450;19.124;2022-12-18T08:53:51;-0.80;99.90
44215;DHT22;29884;47.450;19.124;2022-12-18T08:56:16;-0.80;99.90
44215;DHT22;29884;47.450;19.124;2022-12-18T08:58:42;-0.80;99.90
44215;DHT22;29884;47.450;19.124;2022-12-18T09:01:09;-0.70;99.90
44215;DHT22;29884;47.450;19.124;2022-12-18T09:03:35;-0.70;99.90
44215;DHT22;29884;47.450;19.124;2022-12-18T09:06:01;-0.60;99.90
44215;DHT22;29884;47.450;19.124;2022-12-18T09:08:27;-0.70;99.90
44215;DHT22;29884;47.450;19.124;2022-12-18T09:10:53;-0.60;99.90
44215;DHT22;29884;47.450;19.124;2022-12-18T09:13:19;-0.60;99.90
44215;DHT22;29884;47.450;19.124;2022-12-18T09:15:51;-0.40;99.90
44215;DHT22;29884;47.450;19.124;2022-12-18T09:18:19;-0.40;99.90
44215;DHT22;29884;47.450;19.124;2022-12-18T09:20:45;-0.30;99.90
44215;DHT22;29884;47.450;19.124;2022-12-18T09:23:14;-0.30;99.90
44215;DHT22;29884;47.450;19.124;2022-12-18T09:25:40;-0.30;99.90
44215;DHT22;29884;47.450;19.124;2022-12-18T09:28:11;-0.30;99.90
44215;DHT22;29884;47.450;19.124;2022-12-18T09:30:42;-0.20;99.90
44215;DHT22;29884;47.450;19.124;2022-12-18T09:33:09;-0.30;99.90
44215;DHT22;29884;47.450;19.124;2022-12-18T09:35:42;-0.30;99.90
44215;DHT22;29884;47.450;19.124;2022-12-18T09:38:11;-0.20;99.90
44215;DHT22;29884;47.450;19.124;2022-12-18T09:40:47;0.00;99.90
44215;DHT22;29884;47.450;19.124;2022-12-18T09:43:30;0.00;99.90
44215;DHT22;29884;47.450;19.124;2022-12-18T09:46:02;0.10;99.90
44215;DHT22;29884;47.450;19.124;2022-12-18T09:48:35;0.20;99.90
44215;DHT22;29884;47.450;19.124;2022-12-18T09:51:19;0.30;99.90
44215;DHT22;29884;47.450;19.124;2022-12-18T09:53:53;0.30;99.90
44215;DHT22;29884;47.450;19.124;2022-12-18T09:56:21;0.30;99.90
44215;DHT22;29884;47.450;19.124;2022-12-18T09:59:41;0.30;99.90
44215;DHT22;29884;47.450;19.124;2022-12-18T10:04:41;0.40;99.90
44215;DHT22;29884;47.450;19.124;2022-12-18T10:07:15;0.50;99.90
44215;DHT22;29884;47.450;19.124;2022-12-18T10:10:19;0.60;99.90
44215;DHT22;29884;47.450;19.124;2022-12-18T10:15:49;0.50;99.90
44215;DHT22;29884;47.450;19.124;2022-12-18T10:20:49;0.60;99.90
44215;DHT22;29884;47.450;19.124;2022-12-18T10:23:24;0.70;99.90
44215;DHT22;29884;47.450;19.124;2022-12-18T10:26:05;0.80;99.90
44215;DHT22;29884;47.450;19.124;2022-12-18T10:28:33;0.70;99.90
44215;DHT22;29884;47.450;19.124;2022-12-18T10:31:01;0.80;99.90
44215;DHT22;29884;47.450;19.124;2022-12-18T10:33:32;0.80;99.90
44215;DHT22;29884;47.450;19.124;2022-12-18T10:35:58;0.90;99.90
44215;DHT22;29884;47.450;19.124;2022-12-18T10:38:28;1.00;99.90
44215;DHT22;29884;47.450;19.124;2022-12-18T10:43:33;1.00;99.90
44215;DHT22;29884;47.450;19.124;2022-12-18T10:46:00;1.10;99.90
44215;DHT22;29884;47.450;19.124;2022-12-18T10:48:26;1.10;99.90
44215;DHT22;29884;47.450;19.124;2022-12-18T10:50:53;1.10;99.90
44215;DHT22;29884;47.450;19.124;2022-12-18T10:53:24;1.20;99.90
44215;DHT22;29884;47.450;19.124;2022-12-18T10:55:52;1.30;99.90
44215;DHT22;29884;47.450;19.124;2022-12-18T11:08:34;1.40;99.90
44215;DHT22;29884;47.450;19.124;2022-12-18T11:11:00;1.40;99.90
44215;DHT22;29884;47.450;19.124;2022-12-18T11:13:29;1.40;99.90
44215;DHT22;29884;47.450;19.124;2022-12-18T11:15:55;1.50;99.90
44215;DHT22;29884;47.450;19.124;2022-12-18T11:18:32;1.60;99.90
44215;DHT22;29884;47.450;19.124;2022-12-18T11:21:08;1.70;99.90
44215;DHT22;29884;47.450;19.124;2022-12-18T11:23:35;1.70;99.90
44215;DHT22;29884;47.450;19.124;2022-12-18T11:26:04;1.80;99.90
44215;DHT22;29884;47.450;19.124;2022-12-18T11:33:40;1.70;99.90
44215;DHT22;29884;47.450;19.124;2022-12-18T11:36:08;1.70;99.90
44215;DHT22;29884;47.450;19.124;2022-12-18T11:38:36;1.80;99.90
44215;DHT22;29884;47.450;19.124;2022-12-18T11:43:54;2.00;99.90
44215;DHT22;29884;47.450;19.124;2022-12-18T11:46:30;2.10;99.90
44215;DHT22;29884;47.450;19.124;2022-12-18T11:48:58;2.10;99.90
44215;DHT22;29884;47.450;19.124;2022-12-18T11:51:43;2.10;99.90
44215;DHT22;29884;47.450;19.124;2022-12-18T11:54:13;2.10;99.90
44215;DHT22;29884;47.450;19.124;2022-12-18T11:57:08;2.20;99.90
44215;DHT22;29884;47.450;19.124;2022-12-18T12:02:46;2.20;99.90
44215;DHT22;29884;47.450;19.124;2022-12-18T12:08:21;2.20;99.90
44215;DHT22;29884;47.450;19.124;2022-12-18T12:16:42;2.30;99.90
44215;DHT22;29884;47.450;19.124;2022-12-18T12:19:19;2.30;99.90
44215;DHT22;29884;47.450;19.124;2022-12-18T12:30:48;2.40;99.90
44215;DHT22;29884;47.450;19.124;2022-12-18T12:33:52;2.40;99.90
44215;DHT22;29884;47.450;19.124;2022-12-18T12:36:16;2.50;99.90
44215;DHT22;29884;47.450;19.124;2022-12-18T12:38:49;2.50;99.90
44215;DHT22;29884;47.450;19.124;2022-12-18T12:41:22;2.50;99.90
44215;DHT22;29884;47.450;19.124;2022-12-18T12:44:12;2.50;99.90
44215;DHT22;29884;47.450;19.124;2022-12-18T12:46:41;2.40;99.90
44215;DHT22;29884;47.450;19.124;2022-12-18T12:49:15;2.40;99.90
44215;DHT22;29884;47.450;19.124;2022-12-18T12:51:47;2.50;99.90
44215;DHT22;29884;47.450;19.124;2022-12-18T12:54:23;2.50;99.90
44215;DHT22;29884;47.450;19.124;2022-12-18T12:57:18;2.50;99.90
44215;DHT22;29884;47.450;19.124;2022-12-18T13:00:24;2.60;99.90
44215;DHT22;29884;47.450;19.124;2022-12-18T13:08:01;2.60;99.90
44215;DHT22;29884;47.450;19.124;2022-12-18T13:10:47;2.60;99.90
44215;DHT22;29884;47.450;19.124;2022-12-18T13:13:16;2.60;99.90
44215;DHT22;29884;47.450;19.124;2022-12-18T13:16:04;2.60;99.90
44215;DHT22;29884;47.450;19.124;2022-12-18T13:18:30;2.60;99.90
44215;DHT22;29884;47.450;19.124;2022-12-18T13:25:59;2.50;99.90
44215;DHT22;29884;47.450;19.124;2022-12-18T13:34:24;2.50;99.90
44215;DHT22;29884;47.450;19.124;2022-12-18T13:36:51;2.50;99.90
44215;DHT22;29884;47.450;19.124;2022-12-18T13:41:44;2.40;99.90
44215;DHT22;29884;47.450;19.124;2022-12-18T13:47:03;2.40;99.90
44215;DHT22;29884;47.450;19.124;2022-12-18T13:52:01;2.40;99.90
44215;DHT22;29884;47.450;19.124;2022-12-18T13:54:39;2.30;99.90
44215;DHT22;29884;47.450;19.124;2022-12-18T13:57:28;2.30;99.90
44215;DHT22;29884;47.450;19.124;2022-12-18T13:59:55;2.30;99.90
44215;DHT22;29884;47.450;19.124;2022-12-18T14:02:23;2.30;99.90
44215;DHT22;29884;47.450;19.124;2022-12-18T14:04:50;2.30;99.90
44215;DHT22;29884;47.450;19.124;2022-12-18T14:07:39;2.20;99.90
44215;DHT22;29884;47.450;19.124;2022-12-18T14:10:12;2.20;99.90
44215;DHT22;29884;47.450;19.124;2022-12-18T14:12:45;2.20;99.90
44215;DHT22;29884;47.450;19.124;2022-12-18T14:15:36;2.20;99.90
44215;DHT22;29884;47.450;19.124;2022-12-18T14:20:50;2.00;99.90
44215;DHT22;29884;47.450;19.124;2022-12-18T14:25:55;1.90;99.90
44215;DHT22;29884;47.450;19.124;2022-12-18T14:28:21;1.80;99.90
44215;DHT22;29884;47.450;19.124;2022-12-18T14:30:49;1.80;99.90
44215;DHT22;29884;47.450;19.124;2022-12-18T14:36:04;1.70;99.90
44215;DHT22;29884;47.450;19.124;2022-12-18T14:38:38;1.70;99.90
44215;DHT22;29884;47.450;19.124;2022-12-18T14:41:05;1.60;99.90
44215;DHT22;29884;47.450;19.124;2022-12-18T14:43:36;1.60;99.90
44215;DHT22;29884;47.450;19.124;2022-12-18T14:46:04;1.50;99.90
44215;DHT22;29884;47.450;19.124;2022-12-18T14:48:37;1.50;99.90
44215;DHT22;29884;47.450;19.124;2022-12-18T14:51:16;1.40;99.90
44215;DHT22;29884;47.450;19.124;2022-12-18T14:54:05;1.30;99.90
44215;DHT22;29884;47.450;19.124;2022-12-18T14:56:32;1.20;99.90
44215;DHT22;29884;47.450;19.124;2022-12-18T14:59:04;1.00;99.90
44215;DHT22;29884;47.450;19.124;2022-12-18T15:01:38;1.00;99.90
44215;DHT22;29884;47.450;19.124;2022-12-18T15:04:39;1.00;99.90
44215;DHT22;29884;47.450;19.124;2022-12-18T15:07:22;0.80;99.90
44215;DHT22;29884;47.450;19.124;2022-12-18T15:12:50;0.60;99.90
44215;DHT22;29884;47.450;19.124;2022-12-18T15:18:13;0.60;99.90
44215;DHT22;29884;47.450;19.124;2022-12-18T15:26:04;0.40;99.90
44215;DHT22;29884;47.450;19.124;2022-12-18T15:28:33;0.30;99.90
44215;DHT22;29884;47.450;19.124;2022-12-18T15:36:09;0.10;99.90
44215;DHT22;29884;47.450;19.124;2022-12-18T15:38:35;0.10;99.90
44215;DHT22;29884;47.450;19.124;2022-12-18T15:41:02;0.00;99.90
44215;DHT22;29884;47.450;19.124;2022-12-18T15:43:31;0.10;99.90
44215;DHT22;29884;47.450;19.124;2022-12-18T15:46:01;0.10;99.90
44215;DHT22;29884;47.450;19.124;2022-12-18T15:48:27;0.00;99.90
44215;DHT22;29884;47.450;19.124;2022-12-18T15:50:54;-0.10;99.90
44215;DHT22;29884;47.450;19.124;2022-12-18T15:53:22;-0.10;99.90
44215;DHT22;29884;47.450;19.124;2022-12-18T15:55:48;0.00;99.90
44215;DHT22;29884;47.450;19.124;2022-12-18T15:58:33;0.00;99.90
44215;DHT22;29884;47.450;19.124;2022-12-18T16:00:59;-0.10;99.90
44215;DHT22;29884;47.450;19.124;2022-12-18T16:03:25;-0.20;99.90
44215;DHT22;29884;47.450;19.124;2022-12-18T16:05:51;-0.30;99.90
44215;DHT22;29884;47.450;19.124;2022-12-18T16:08:17;-0.30;99.90
44215;DHT22;29884;47.450;19.124;2022-12-18T16:10:43;-0.40;99.90
44215;DHT22;29884;47.450;19.124;2022-12-18T16:13:11;-0.50;99.90
44215;DHT22;29884;47.450;19.124;2022-12-18T16:15:37;-0.60;99.90
44215;DHT22;29884;47.450;19.124;2022-12-18T16:18:02;-0.60;99.90
44215;DHT22;29884;47.450;19.124;2022-12-18T16:20:28;-0.60;99.90
44215;DHT22;29884;47.450;19.124;2022-12-18T16:22:54;-0.60;99.90
44215;DHT22;29884;47.450;19.124;2022-12-18T16:25:27;-0.70;99.90
44215;DHT22;29884;47.450;19.124;2022-12-18T16:27:54;-0.70;99.90
44215;DHT22;29884;47.450;19.124;2022-12-18T16:30:28;-0.70;99.90
44215;DHT22;29884;47.450;19.124;2022-12-18T16:32:56;-0.80;99.90
44215;DHT22;29884;47.450;19.124;2022-12-18T16:35:24;-0.90;99.90
44215;DHT22;29884;47.450;19.124;2022-12-18T16:37:50;-0.90;99.90
44215;DHT22;29884;47.450;19.124;2022-12-18T16:40:19;-0.90;99.90
44215;DHT22;29884;47.450;19.124;2022-12-18T16:42:46;-1.00;99.90
44215;DHT22;29884;47.450;19.124;2022-12-18T16:45:15;-1.00;99.90
44215;DHT22;29884;47.450;19.124;2022-12-18T16:47:41;-1.10;99.90
44215;DHT22;29884;47.450;19.124;2022-12-18T16:50:07;-1.10;99.90
44215;DHT22;29884;47.450;19.124;2022-12-18T16:52:33;-1.20;99.90
44215;DHT22;29884;47.450;19.124;2022-12-18T16:54:59;-1.20;99.90
44215;DHT22;29884;47.450;19.124;2022-12-18T16:57:25;-1.20;99.90
44215;DHT22;29884;47.450;19.124;2022-12-18T16:59:51;-1.20;99.90
44215;DHT22;29884;47.450;19.124;2022-12-18T17:02:22;-1.30;99.90
44215;DHT22;29884;47.450;19.124;2022-12-18T17:04:48;-1.30;99.90
44215;DHT22;29884;47.450;19.124;2022-12-18T17:07:15;-1.30;99.90
44215;DHT22;29884;47.450;19.124;2022-12-18T17:09:41;-1.40;99.90
44215;DHT22;29884;47.450;19.124;2022-12-18T17:12:07;-1.40;99.90
44215;DHT22;29884;47.450;19.124;2022-12-18T17:14:33;-1.40;99.90
44215;DHT22;29884;47.450;19.124;2022-12-18T17:16:59;-1.40;99.90
44215;DHT22;29884;47.450;19.124;2022-12-18T17:19:26;-1.40;99.90
44215;DHT22;29884;47.450;19.124;2022-12-18T17:21:52;-1.50;99.90
44215;DHT22;29884;47.450;19.124;2022-12-18T17:24:18;-1.60;99.90
44215;DHT22;29884;47.450;19.124;2022-12-18T17:26:45;-1.60;99.90